Latest Weather Observations for Double Island Point

IDQ60901

Issued at 1:21 pm EST Wednesday 6 May 2015 (issued every 10 minutes, with the page automatically refreshed every 10 minutes)

About weather observations | Map of Brisbane area stations | Latest observations for Brisbane area | Other Formats
Station Details ID: 040068 Name: DOUBLE ISLAND POINT LIGHTHOUSE Lat: -25.93 Lon: 153.19 Height: 95.64 m
Data from the previous 72 hours. | See also: Recent months at Double Island Point
Date/Time
EST
Tmp

°C
App
Tmp
°C
Dew
Point
°C
Rel
Hum
%
Delta-T

°C
Wind Press
QNH
hPa
Press
MSL
hPa
Rain
since
9 am
mm
Dir
 
Spd
km/h
Gust
km/h
Spd
kts
Gust
kts
06/01:00pm 28.5 29.6 19.7 59 5.8 NNW 13 17 7 9 1013.1 1012.8 0.0
06/12:30pm 28.4 30.2 20.4 62 5.3 NNW 11 17 6 9 1013.3 1013.1 0.0
06/12:00pm 27.5 28.7 19.8 63 5.0 NW 13 20 7 11 1013.7 1013.4 0.0
06/11:30am 26.5 26.8 19.6 66 4.5 NW 17 22 9 12 1014.1 1013.8 0.0
06/11:00am 25.6 25.2 18.8 66 4.4 NW 19 24 10 13 1014.5 1014.2 0.0
06/10:30am 25.3 24.8 18.7 67 4.2 NW 19 24 10 13 1014.8 1014.5 0.0
06/10:00am 24.6 23.7 18.3 68 4.0 NNW 20 30 11 16 1015.0 1014.7 0.0
06/09:30am 23.8 23.0 18.4 72 3.4 NNW 20 30 11 16 1015.2 1014.9 0.0
06/09:00am 23.3 22.6 18.6 75 3.0 NW 20 26 11 14 1015.1 1014.8 0.0
06/08:30am 22.3 20.2 18.1 77 2.6 WNW 26 32 14 17 1014.8 1014.5 0.0
06/08:00am 21.9 19.8 18.1 79 2.4 WNW 26 33 14 18 1014.8 1014.5 0.0
06/07:30am 21.3 18.7 17.7 80 2.2 WNW 28 33 15 18 1014.4 1014.1 0.0
06/07:00am 21.1 18.9 17.9 82 2.0 WNW 26 33 14 18 1014.2 1013.9 0.0
06/06:30am 20.7 18.5 17.9 84 1.7 WNW 26 32 14 17 1013.9 1013.6 0.0
06/06:00am 20.5 18.3 17.9 85 1.6 WNW 26 32 14 17 1013.6 1013.3 0.0
06/05:30am 20.2 18.1 18.0 87 1.4 WNW 26 30 14 16 1013.1 1012.8 0.0
06/05:00am 19.6 16.8 17.4 87 1.3 WNW 28 32 15 17 1012.8 1012.5 0.0
06/04:30am 19.6 17.1 17.2 86 1.5 WNW 26 28 14 15 1012.4 1012.1 0.0
06/04:00am 20.0 18.7 17.2 84 1.7 NW 20 26 11 14 1012.4 1012.1 0.0
06/03:30am 20.6 18.5 17.2 81 2.1 NW 24 32 13 17 1012.4 1012.1 0.0
06/03:00am 20.4 18.2 16.8 80 2.2 WNW 24 30 13 16 1012.6 1012.3 0.0
06/02:30am 20.3 18.3 17.5 84 1.7 WNW 24 30 13 16 1012.7 1012.4 0.0
06/02:00am 20.6 18.9 18.0 85 1.6 WNW 24 28 13 15 1012.5 1012.2 0.0
06/01:30am 21.0 19.2 17.8 82 2.0 NW 24 30 13 16 1012.7 1012.4 0.0
06/01:00am 20.9 19.4 17.7 82 2.0 NW 22 26 12 14 1013.0 1012.7 0.0
06/12:30am 20.8 19.7 17.8 83 1.9 NW 20 22 11 12 1013.5 1013.2 0.0
06/12:00am 21.1 20.3 17.9 82 2.0 NW 19 22 10 12 1013.6 1013.3 0.0
 
Date/Time
EST
Tmp

°C
App
Tmp
°C
Dew
Point
°C
Rel
Hum
%
Delta-T

°C
Wind Press
QNH
hPa
Press
MSL
hPa
Rain
since
9 am
mm
Dir
 
Spd
km/h
Gust
km/h
Spd
kts
Gust
kts
05/11:30pm 21.4 20.6 18.0 81 2.1 NW 19 22 10 12 1013.7 1013.4 0.0
05/11:00pm 21.5 20.6 18.1 81 2.1 NW 20 22 11 12 1013.7 1013.4 0.0
05/10:30pm 21.7 20.9 18.1 80 2.2 NW 19 20 10 11 1013.8 1013.5 0.0
05/10:00pm 22.2 23.6 17.8 76 2.7 N 7 19 4 10 1013.8 1013.5 0.0
05/09:30pm 22.3 23.3 17.7 75 2.9 NNW 9 19 5 10 1013.6 1013.3 0.0
05/09:00pm 22.3 22.5 17.7 75 2.9 N 13 24 7 13 1013.0 1012.7 0.0
05/08:30pm 22.3 23.4 17.9 76 2.7 NNW 9 17 5 9 1012.9 1012.6 0.0
05/08:00pm 22.5 21.4 17.8 75 2.9 N 20 28 11 15 1012.6 1012.3 0.0
05/07:30pm 22.4 20.6 17.8 75 2.9 NNE 24 30 13 16 1012.2 1011.9 0.0
05/07:00pm 22.4 20.9 17.8 75 2.9 NNE 22 26 12 14 1011.9 1011.6 0.0
05/06:30pm 22.4 21.5 17.8 75 2.9 NNE 19 22 10 12 1011.6 1011.3 0.0
05/06:00pm 22.3 23.1 17.4 74 3.0 NE 9 19 5 10 1011.3 1011.0 0.0
05/05:30pm 22.9 23.5 16.9 69 3.7 NE 9 19 5 10 1011.2 1010.9 0.0
05/05:00pm 24.0 24.6 16.8 64 4.4 NE 9 15 5 8 1011.1 1010.8 0.0
05/04:30pm 24.5 25.1 16.7 61 4.8 NE 9 15 5 8 1010.8 1010.5 0.0
05/04:00pm 25.1 25.7 16.8 60 5.1 NE 9 13 5 7 1010.8 1010.5 0.0
05/03:30pm 25.3 24.9 15.3 54 6.1 NE 11 15 6 8 1010.8 1010.5 0.0
05/03:00pm 27.3 27.1 16.6 52 6.7 NNE 13 15 7 8 1010.7 1010.4 0.0
05/02:30pm 27.3 27.3 17.2 54 6.3 NNE 13 17 7 9 1010.7 1010.4 0.0
05/02:00pm 27.8 28.5 18.8 58 5.8 NNE 13 15 7 8 1011.1 1010.8 0.0
05/01:30pm 27.6 28.3 18.0 55 6.1 NNE 11 15 6 8 1011.4 1011.1 0.0
05/01:00pm 27.3 28.8 18.0 56 5.9 N 7 9 4 5 1011.7 1011.4 0.0
05/12:30pm 27.9 29.9 19.1 58 5.7 NNW 7 13 4 7 1012.2 1011.9 0.0
05/12:00pm 27.3 28.7 18.6 59 5.6 NNW 9 15 5 8 1012.8 1012.5 0.0
05/11:30am 26.9 27.3 18.2 59 5.5 NNW 13 17 7 9 1013.5 1013.2 0.0
05/11:00am 25.6 25.7 17.5 61 5.1 NNW 13 19 7 10 1013.9 1013.6 0.0
05/10:30am 25.9 27.3 18.6 64 4.7 NNW 9 17 5 9 1014.3 1014.0 0.0
05/10:00am 24.7 25.6 18.4 68 4.0 NW 11 15 6 8 1014.6 1014.3 0.0
05/09:30am 23.6 24.0 17.3 67 3.9 WNW 11 15 6 8 1014.7 1014.4 0.0
05/09:00am 23.0 23.8 17.2 70 3.6 WNW 9 15 5 8 1014.6 1014.3 0.0
05/08:30am 22.7 23.9 17.4 72 3.3 WNW 7 11 4 6 1014.5 1014.2 0.0
05/08:00am 22.4 23.8 17.3 73 3.2 SSW 6 7 3 4 1014.1 1013.8 0.0
05/07:30am 21.8 22.9 17.0 74 2.9 SSE 7 9 4 5 1013.8 1013.5 0.0
05/07:00am 21.2 21.9 17.0 77 2.6 S 9 11 5 6 1013.5 1013.2 0.0
05/06:30am 20.8 21.0 16.8 78 2.4 S 11 13 6 7 1013.2 1013.0 0.0
05/06:00am 20.5 20.7 16.7 79 2.3 SSW 11 13 6 7 1013.1 1012.8 0.0
05/05:30am 20.5 20.9 17.3 82 2.0 S 11 13 6 7 1012.9 1012.6 0.0
05/05:00am 20.5 21.0 17.5 83 1.8 S 11 11 6 6 1012.9 1012.6 0.0
05/04:30am 20.4 20.8 17.2 82 2.0 S 11 13 6 7 1012.6 1012.3 0.0
05/04:00am 20.6 21.0 17.2 81 2.1 S 11 13 6 7 1012.7 1012.4 0.0
05/03:30am 20.4 20.4 17.2 82 2.0 S 13 13 7 7 1012.6 1012.3 0.0
05/03:00am 20.5 20.6 17.5 83 1.8 S 13 15 7 8 1012.7 1012.4 0.0
05/02:30am 20.7 20.5 17.7 83 1.9 S 15 17 8 9 1012.8 1012.5 0.0
05/02:00am 21.0 21.4 17.2 79 2.3 SSE 11 13 6 7 1012.9 1012.6 0.0
05/01:30am 21.1 21.1 17.3 79 2.3 SSE 13 15 7 8 1013.2 1013.0 0.0
05/01:00am 21.1 21.6 17.5 80 2.2 SSE 11 15 6 8 1013.6 1013.3 0.0
05/12:30am 21.3 22.0 17.1 77 2.6 SSE 9 13 5 7 1013.9 1013.6 0.0
05/12:00am 21.4 22.0 16.8 75 2.8 SSE 9 13 5 7 1014.0 1013.7 0.0
 
Date/Time
EST
Tmp

°C
App
Tmp
°C
Dew
Point
°C
Rel
Hum
%
Delta-T

°C
Wind Press
QNH
hPa
Press
MSL
hPa
Rain
since
9 am
mm
Dir
 
Spd
km/h
Gust
km/h
Spd
kts
Gust
kts
04/11:30pm 21.6 22.2 16.8 74 2.9 SE 9 13 5 7 1014.1 1013.8 0.0
04/11:00pm 21.6 21.4 16.6 73 3.0 SE 13 17 7 9 1014.4 1014.1 0.0
04/10:30pm 21.7 20.5 16.2 71 3.3 ESE 17 19 9 10 1014.3 1014.0 0.0
04/10:00pm 21.6 20.7 16.8 74 2.9 ESE 17 20 9 11 1014.4 1014.1 0.0
04/09:30pm 21.7 20.7 16.6 73 3.1 ESE 17 20 9 11 1014.4 1014.1 0.0
04/09:00pm 21.6 20.5 16.3 72 3.2 ESE 17 19 9 10 1014.3 1014.0 0.0
04/08:30pm 21.7 20.1 16.6 73 3.1 SE 20 22 11 12 1014.3 1014.0 0.0
04/08:00pm 21.8 20.4 17.0 74 2.9 ESE 20 24 11 13 1014.0 1013.7 0.0
04/07:30pm 21.7 20.3 16.9 74 2.9 SE 20 22 11 12 1013.7 1013.4 0.0
04/07:00pm 21.7 20.2 16.2 71 3.3 SE 19 20 10 11 1013.6 1013.3 0.0
04/06:30pm 21.7 19.7 15.5 68 3.7 SE 20 24 11 13 1013.2 1013.0 0.0
04/06:00pm 21.8 19.6 15.9 69 3.6 SE 22 26 12 14 1012.9 1012.6 0.0
04/05:30pm 21.7 19.2 15.1 66 3.9 SE 22 24 12 13 1012.6 1012.3 0.0
04/05:00pm 21.7 19.6 15.1 66 3.9 SE 20 24 11 13 1012.3 1012.0 0.0
04/04:30pm 21.8 19.6 14.9 65 4.1 SE 20 24 11 13 1012.0 1011.7 0.0
04/04:00pm 22.0 20.2 15.6 67 3.8 SE 19 22 10 12 1011.8 1011.5 0.0
04/03:30pm 22.2 21.2 16.5 70 3.5 SE 17 20 9 11 1011.8 1011.5 0.0
04/03:00pm 22.4 21.0 16.9 71 3.4 SE 20 22 11 12 1011.8 1011.5 0.0
04/02:30pm 22.7 21.4 16.9 70 3.6 SSE 19 22 10 12 1011.8 1011.5 0.0
04/02:00pm 22.7 21.7 16.7 69 3.7 SSE 17 20 9 11 1011.8 1011.5 0.0
04/01:30pm 22.9 21.7 17.4 71 3.4 SE 20 22 11 12 1012.0 1011.7 0.0
04/01:00pm 22.8 21.4 15.6 64 4.3 SSE 17 22 9 12 1012.3 1012.0 0.0
04/12:30pm 22.9 21.3 16.4 67 4.0 SSE 20 24 11 13 1012.6 1012.3 0.0
04/12:00pm 22.8 20.8 16.4 67 3.9 SSE 22 30 12 16 1013.1 1012.8 0.0
04/11:30am 22.7 21.7 16.7 69 3.7 S 17 19 9 10 1013.6 1013.3 0.0
04/11:00am 22.5 21.5 17.6 74 3.0 S 19 22 10 12 1014.0 1013.7 0.0
04/10:30am 23.0 22.5 17.9 73 3.2 SSE 17 22 9 12 1014.1 1013.8 0.0
04/10:00am 22.4 21.5 17.8 75 2.9 S 19 22 10 12 1014.2 1013.9 0.0
04/09:30am 22.1 21.1 17.5 75 2.9 S 19 24 10 13 1014.0 1013.7 0.0
04/09:00am 21.9 20.5 17.1 74 3.0 SSE 20 26 11 14 1014.1 1013.8 1.0
04/08:30am 21.6 20.8 17.2 76 2.7 S 17 22 9 12 1013.9 1013.6 1.0
04/08:00am 21.2 20.5 16.4 74 2.9 S 15 19 8 10 1013.8 1013.5 1.0
04/07:30am 20.8 20.4 16.2 75 2.8 S 13 15 7 8 1013.7 1013.4 1.0
04/07:00am 20.6 21.2 15.8 74 2.9 S 7 11 4 6 1013.3 1013.1 1.0
04/06:30am 20.5 20.2 15.5 73 3.0 WSW 11 13 6 7 1012.9 1012.6 1.0
04/06:00am 20.4 19.5 15.8 75 2.8 W 15 17 8 9 1012.5 1012.2 0.8
04/05:30am 20.1 18.8 15.9 77 2.5 W 17 19 9 10 1012.3 1012.0 0.8
04/05:00am 20.3 19.1 16.1 77 2.5 W 17 19 9 10 1012.1 1011.8 0.8
04/04:30am 20.5 19.7 16.1 76 2.6 W 15 19 8 10 1012.1 1011.8 0.8
04/04:00am 20.2 19.1 16.4 79 2.3 WNW 17 20 9 11 1011.9 1011.6 0.8
04/03:30am 19.6 19.0 17.6 88 1.2 WNW 17 19 9 10 1011.7 1011.4 0.8
04/03:00am 19.7 19.1 17.5 87 1.4 WNW 17 19 9 10 1011.7 1011.4 0.8
04/02:30am 19.8 19.2 17.6 87 1.4 WNW 17 19 9 10 1011.9 1011.6 0.8
04/02:00am 19.6 18.5 17.2 86 1.5 WNW 19 20 10 11 1011.9 1011.6 0.8
04/01:30am 19.8 18.6 17.0 84 1.7 WNW 19 20 10 11 1012.1 1011.8 0.8
04/01:00am 19.6 17.5 17.2 86 1.5 WNW 24 26 13 14 1012.3 1012.0 0.8
04/12:30am 19.7 18.6 17.7 88 1.2 WNW 20 24 11 13 1012.5 1012.2 0.8
04/12:00am 19.8 18.6 17.6 87 1.4 WNW 20 24 11 13 1012.7 1012.4 0.8
 
Date/Time
EST
Tmp

°C
App
Tmp
°C
Dew
Point
°C
Rel
Hum
%
Delta-T

°C
Wind Press
QNH
hPa
Press
MSL
hPa
Rain
since
9 am
mm
Dir
 
Spd
km/h
Gust
km/h
Spd
kts
Gust
kts
03/11:30pm 19.9 18.6 17.3 85 1.6 WNW 20 26 11 14 1012.9 1012.6 0.8
03/11:00pm 20.2 18.5 17.2 83 1.8 WNW 22 26 12 14 1012.8 1012.5 0.8
03/10:30pm 20.2 19.1 17.2 83 1.8 NW 19 22 10 12 1013.2 1013.0 0.8
03/10:00pm 20.0 18.9 17.4 85 1.6 NW 19 22 10 12 1013.3 1013.1 0.8
03/09:30pm 19.9 19.7 17.5 86 1.5 NNW 15 20 8 11 1013.3 1013.1 0.8
03/09:00pm 19.7 19.1 17.5 87 1.4 NNW 17 20 9 11 1013.5 1013.2 0.8
03/08:30pm 19.4 18.3 17.2 87 1.3 WNW 19 20 10 11 1013.2 1013.0 0.8
03/08:00pm 19.5 19.0 16.9 85 1.6 NW 15 19 8 10 1013.2 1013.0 0.8
03/07:30pm 21.4 20.1 16.8 75 2.8 WNW 19 26 10 14 1013.2 1013.0 0.0
03/07:00pm 22.2 23.3 17.1 73 3.1 N 7 20 4 11 1012.5 1012.2 0.0
03/06:30pm 22.3 23.0 17.0 72 3.3 NNW 9 17 5 9 1011.9 1011.6 0.0
03/06:00pm 22.3 23.5 16.8 71 3.4 N 6 15 3 8 1011.5 1011.2 0.0
03/05:30pm 22.2 22.4 16.7 71 3.4 N 11 20 6 11 1011.2 1010.9 0.0
03/05:00pm 22.4 22.8 16.2 68 3.8 NNE 9 17 5 9 1010.8 1010.5 0.0
03/04:30pm 23.3 24.7 16.4 65 4.2 NNW 4 9 2 5 1010.4 1010.1 0.0
03/04:00pm 22.8 24.5 16.1 66 4.1 SSW 2 7 1 4 1010.4 1010.1 0.0
03/03:30pm 22.9 23.8 16.0 65 4.2 NNW 6 15 3 8 1010.2 1009.9 0.0
03/03:00pm 25.4 26.6 16.8 59 5.3 NNW 6 11 3 6 1010.1 1009.8 0.0
03/02:30pm 25.4 25.5 15.4 54 6.1 N 9 15 5 8 1010.1 1009.8 0.0
03/02:00pm 25.6 25.0 15.6 54 6.1 NNW 13 19 7 10 1010.4 1010.1 0.0
03/01:30pm 26.3 26.5 16.8 56 5.9 NNW 11 20 6 11 1010.4 1010.1 0.0

Latest Capital City Observations: Canberra | Sydney | Melbourne | Brisbane | Adelaide | Perth | Hobart | Darwin

Other Formats:

Comma delimited format used in spreadsheet applications
http://www.bom.gov.au/fwo/IDQ60901/IDQ60901.94584.axf

JavaScript Object Notation format (JSON) in row-major order
http://www.bom.gov.au/fwo/IDQ60901/IDQ60901.94584.json